Lynradar: storm image Ingen tordenbyger registrert..



Vårt webkamera mer informasjon My webcam


Kamera på Foreneset mer informasjon webcam on foreneset


Lynradar  blitzortung!


Nedbørsradar  rain snow radar


Besøk vår andre værside:

Alternativ webside

iphone versjon

Mobil versjon

Foreneset
verstasjon



Ikke nødvendig med spesiell oppmerksomhet.    Det er ingen advarsler

Nære METAR rapporter

  
ENHD - Haugesund/Karmoy, Norway
Avstand fra stasjon: V 50km
oppdatert: 26-02-2018 04:20
Freezing, Overskyet
Freezing, Overskyet  
 Wind from SSV
Vind: SSV 19 km/h
Temperatur:  -1°C
Wind Chill:  -7°C
Duggpunkt:  -6°C
Fuktighet:  69%
Barometer:  1041 hPa
Summering:  Freezing
Skyer:  Overskyet
Sikt:  10 km
Skydetaljer:  Overskyet 792 m
2018/02/26 03:20 ENHD 260320Z AUTO 21010KT 9999 FZUP OVC026/// M01/M06 Q1041
ENZV - Stavanger/Sola(A, Norway
Avstand fra stasjon: SSV 58km
oppdatert: 26-02-2018 03:50
For det meste skyet
For det meste skyet  
 Wind from S
Vind: S 11 km/h
Temperatur:  -3°C
Wind Chill:  -7°C
Duggpunkt:  -9°C
Fuktighet:  64%
Barometer:  1042 hPa
Skyer:  For det meste skyet
Sikt:  10 km
Skydetaljer:  For det meste skyet 1219 m
2018/02/26 02:50 ENZV 260250Z 18006KT 9999 BKN040 M03/M09 Q1042
ENBR - Bergen/Flesland, Norway
Avstand fra stasjon: NNV 118km
oppdatert: 26-02-2018 03:50
Lett snø, Overskyet
Lett snø, Overskyet  
 Wind from SSØ
Vind: SSØ 9 km/h
Temperatur:  -1°C
Wind Chill:  -4°C
Duggpunkt:  -1°C
Fuktighet:  100%
Barometer:  1041 hPa
Summering:  Lett snø
Skyer:  Overskyet
Sikt:  5 km
Skydetaljer:  Overskyet 244 m
2018/02/26 02:50 ENBR 260250Z 16005KT 5000 -SN VV008 M01/M01 Q1041 RMK WIND 1200FT 17008KT
ENCN - Kristiansand/Kje, Norway
Avstand fra stasjon: SØ 169km
oppdatert: 26-02-2018 04:20
Klart
Klart  
 Wind from ØNØ
Vind: ØNØ 13 km/h
Temperatur:  -11°C
Wind Chill:  -18°C
Duggpunkt:  -13°C
Fuktighet:  85%
Barometer:  1042 hPa
Skyer:  Klart
Sikt:  10 km
2018/02/26 03:20 ENCN 260320Z AUTO 06007KT 9999 NCD M11/M13 Q1042
ENQA - Troll-A Heli, Norway
Avstand fra stasjon: NV 198km
oppdatert: 26-02-2018 04:20
For det meste skyet
For det meste skyet  
 Wind from SV
Vind: SV 19 km/h
Temperatur:  3°C
Wind Chill:  -2°C
Duggpunkt:  -1°C
Fuktighet:  75%
Barometer:  1040 hPa
Skyer:  For det meste skyet
Sikt:  16 miles
Skydetaljer:  Få Skyer 610 m
Delvis Skyet 1158 m
For det meste skyet 1768 m
2018/02/26 03:20 ENQA 260320Z AUTO 23010KT 9999NDV FEW020/// SCT038/// BKN058/// 03/M01 Q1040 W03/S3
ENOA - Oseberg, Norway
Avstand fra stasjon: NV 224km
oppdatert: 26-02-2018 03:50
For det meste skyet
For det meste skyet  
 Wind from SV
Vind: SV 13 km/h
Temperatur:  3°C
Wind Chill:  -1°C
Duggpunkt:  1°C
Fuktighet:  87%
Barometer:  1040 hPa
Skyer:  For det meste skyet
Sikt:  10 km
Skydetaljer:  For det meste skyet 457 m
For det meste skyet 1981 m
2018/02/26 02:50 ENOA 260250Z 22007KT 9999 BKN015 BKN065 03/01 Q1040 W///S4
ENFG - Fagernes/Leirin, Norway
Avstand fra stasjon: NØ 257km
oppdatert: 25-02-2018 18:20
Ikke oppdatert
Lett snø, Overskyet
Lett snø, Overskyet  
 Wind from varierer
Vind: varierer 2 km/h
Temperatur:  -11°C
Duggpunkt:  -12°C
Fuktighet:  92%
Barometer:  1035 hPa
Summering:  Lett snø
Skyer:  Overskyet
Sikt:  4 km
Skydetaljer:  Overskyet 61 m
2018/02/25 17:20 ENFG 251720Z VRB01KT 4000 -SN VV0022 M11/M12 Q1035
ENSL - Sleipner A Platf, Norway
Avstand fra stasjon: VSV 264km
oppdatert: 26-02-2018 04:20
Overskyet
Overskyet  
 Wind from SØ
Vind: SØ 31 km/h
Temperatur:  1°C
Wind Chill:  -5°C
Duggpunkt:  -4°C
Fuktighet:  70%
Barometer:  1040 hPa
Skyer:  Overskyet
Sikt:  16 miles
Skydetaljer:  Overskyet 732 m
2018/02/26 03:20 ENSL 260320Z AUTO 14017KT 9999NDV OVC024/// 01/M04 Q1040 W03/S4
ENGC - Gullfax (platfor, Norway
Avstand fra stasjon: NV 294km
oppdatert: 26-02-2018 03:50
Klart
Klart  
 Wind from V
Vind: V 7 km/h
Temperatur:  4°C
Wind Chill:  2°C
Duggpunkt:  -2°C
Fuktighet:  65%
Barometer:  1040 hPa
Summering:  Klart
Sikt:  mer enn 10 km
2018/02/26 02:50 ENGC 260250Z 26004KT CAVOK 04/M02 Q1040 W05/S4
ENGM - Oslo/Gardermoen, Norway
Avstand fra stasjon: ØNØ 294km
oppdatert: 26-02-2018 04:20
For det meste skyet
For det meste skyet  
 Wind from N
Vind: N 7 km/h
Temperatur:  -20°C
Wind Chill:  -26°C
Duggpunkt:  -23°C
Fuktighet:  77%
Barometer:  1041 hPa
Skyer:  For det meste skyet
Sikt:  10 km
Skydetaljer:  For det meste skyet 91 m
2018/02/26 03:20 ENGM 260320Z 35004KT 320V030 9999 BKN003 M20/M23 Q1041

Script utviklet av  Saratoga-weather.org Tilrettelagt for malen av  Weerstation Leuven

Du finner vår vær info også på:


UK Metoffice

European Weather Network

WeatherCloud

Weather Underground

Utstyr vi bruker:


Værstsjon
Davis VP2

Værprogram
Weather Display

Davis VP2

Weather Display